createdAt,value
2022-08-16T00:01:24.481Z,1.70
2022-08-16T00:03:53.762Z,2.05
2022-08-16T00:06:21.715Z,2.20
2022-08-16T00:08:50.170Z,1.73
2022-08-16T00:11:21.072Z,1.10
2022-08-16T00:13:53.604Z,1.95
2022-08-16T00:17:05.506Z,1.58
2022-08-16T00:19:19.844Z,1.58
2022-08-16T00:21:52.210Z,1.80
2022-08-16T00:24:32.606Z,1.60
2022-08-16T00:27:03.544Z,1.65
2022-08-16T00:29:31.695Z,1.38
2022-08-16T00:32:06.309Z,1.40
2022-08-16T00:34:44.339Z,1.50
2022-08-16T00:37:24.111Z,2.20
2022-08-16T00:39:58.302Z,1.45
2022-08-16T00:42:32.256Z,1.70
2022-08-16T00:45:17.193Z,1.50
2022-08-16T00:47:49.244Z,1.40
2022-08-16T00:50:36.224Z,1.20
2022-08-16T00:53:09.932Z,1.20
2022-08-16T00:55:41.851Z,1.58
2022-08-16T00:58:13.186Z,1.27
2022-08-16T01:00:54.231Z,1.23
2022-08-16T01:03:30.377Z,1.00
2022-08-16T01:06:00.023Z,1.20
2022-08-16T01:08:50.794Z,1.25
2022-08-16T01:11:21.709Z,0.98
2022-08-16T01:13:53.818Z,0.95
2022-08-16T01:16:25.790Z,0.90
2022-08-16T01:19:24.635Z,1.20
2022-08-16T01:22:47.521Z,1.10
2022-08-16T01:25:03.466Z,1.00
2022-08-16T01:27:46.960Z,1.13
2022-08-16T01:30:26.186Z,1.17
2022-08-16T01:33:14.757Z,1.50
2022-08-16T01:35:59.704Z,1.15
2022-08-16T01:38:32.455Z,1.13
2022-08-16T01:41:08.414Z,1.00
2022-08-16T01:43:38.570Z,0.90
2022-08-16T01:46:37.243Z,1.00
2022-08-16T01:49:21.151Z,0.80
2022-08-16T01:51:56.288Z,0.77
2022-08-16T01:54:32.242Z,0.70
2022-08-16T01:57:06.850Z,0.70
2022-08-16T01:59:41.332Z,0.70
2022-08-16T02:02:27.438Z,0.85
2022-08-16T02:04:57.511Z,0.85
2022-08-16T02:07:26.271Z,0.70
2022-08-16T02:09:57.167Z,0.90
2022-08-16T02:12:49.275Z,0.80
2022-08-16T02:15:25.287Z,0.90
2022-08-16T02:17:57.560Z,0.98
2022-08-16T02:20:27.866Z,0.90
2022-08-16T02:23:00.279Z,0.60
2022-08-16T02:25:51.027Z,0.70
2022-08-16T02:28:19.264Z,0.88
2022-08-16T02:30:50.908Z,0.90
2022-08-16T02:33:24.514Z,0.70
2022-08-16T02:36:14.558Z,0.70
2022-08-16T02:39:01.896Z,0.80
2022-08-16T02:41:29.049Z,0.60
2022-08-16T02:43:57.134Z,0.60
2022-08-16T02:46:33.564Z,0.60
2022-08-16T02:49:03.796Z,0.70
2022-08-16T02:51:34.210Z,0.90
2022-08-16T02:54:04.201Z,0.80
2022-08-16T02:56:34.292Z,0.70
2022-08-16T02:59:01.873Z,0.98
2022-08-16T03:01:37.224Z,0.80
2022-08-16T03:04:39.315Z,0.93
2022-08-16T03:06:59.734Z,0.65
2022-08-16T03:09:41.399Z,0.70
2022-08-16T03:12:16.297Z,0.93
2022-08-16T03:14:45.160Z,0.77
2022-08-16T03:17:13.948Z,0.60
2022-08-16T03:19:48.828Z,0.50
2022-08-16T03:22:28.962Z,0.60
2022-08-16T03:25:07.649Z,0.70
2022-08-16T03:27:39.227Z,0.45
2022-08-16T03:30:22.281Z,0.65
2022-08-16T03:32:56.676Z,0.63
2022-08-16T03:35:33.034Z,0.63
2022-08-16T03:38:34.520Z,0.70
2022-08-16T03:40:59.658Z,0.60
2022-08-16T03:43:51.502Z,0.43
2022-08-16T03:46:45.153Z,0.50
2022-08-16T03:49:10.869Z,0.43
2022-08-16T03:51:42.601Z,0.45
2022-08-16T03:54:14.047Z,0.63
2022-08-16T03:56:57.024Z,0.50
2022-08-16T03:59:30.283Z,0.60
2022-08-16T04:02:12.615Z,0.50
2022-08-16T04:04:51.543Z,0.40
2022-08-16T04:07:18.795Z,0.30
2022-08-16T04:09:47.951Z,0.40
2022-08-16T04:12:54.777Z,0.38
2022-08-16T04:15:04.679Z,0.20
2022-08-16T04:17:38.813Z,0.30
2022-08-16T04:20:23.758Z,0.25
2022-08-16T04:22:58.661Z,0.30
2022-08-16T04:25:29.272Z,0.20
2022-08-16T04:27:57.047Z,0.20
2022-08-16T04:30:44.527Z,0.25
2022-08-16T04:33:15.390Z,0.20
2022-08-16T04:35:44.300Z,0.20
2022-08-16T04:38:21.192Z,0.10
2022-08-16T04:40:51.577Z,0.25
2022-08-16T04:43:22.050Z,0.20
2022-08-16T04:45:59.971Z,0.10
2022-08-16T04:48:38.868Z,0.10
2022-08-16T04:51:12.732Z,0.20
2022-08-16T04:53:45.543Z,0.20
2022-08-16T04:56:16.497Z,0.20
2022-08-16T04:58:46.859Z,0.20
2022-08-16T05:01:18.321Z,0.10
2022-08-16T05:04:00.863Z,0.28
2022-08-16T05:06:45.535Z,0.10
2022-08-16T05:09:23.941Z,0.20
2022-08-16T05:11:57.490Z,0.10
2022-08-16T05:14:45.949Z,0.10
2022-08-16T05:17:24.839Z,0.10
2022-08-16T05:19:58.333Z,0.10
2022-08-16T05:22:31.680Z,0.13
2022-08-16T05:25:09.046Z,0.20
2022-08-16T05:27:43.147Z,0.20
2022-08-16T05:30:34.971Z,0.10
2022-08-16T05:33:06.721Z,0.10
2022-08-16T05:35:37.635Z,0.30
2022-08-16T05:38:32.907Z,0.10
2022-08-16T05:41:04.703Z,0.03
2022-08-16T05:43:43.683Z,0.13
2022-08-16T05:46:28.614Z,0.20
2022-08-16T05:49:03.129Z,0.00
2022-08-16T05:51:35.786Z,0.32
2022-08-16T05:54:09.668Z,0.10
2022-08-16T05:56:41.399Z,0.13
2022-08-16T05:59:10.926Z,0.10
2022-08-16T06:01:39.781Z,0.03
2022-08-16T06:04:12.515Z,0.10
2022-08-16T06:06:56.251Z,0.05
2022-08-16T06:09:43.017Z,0.00
2022-08-16T06:12:27.970Z,0.10
2022-08-16T06:15:04.584Z,0.00
2022-08-16T06:17:42.929Z,0.03
2022-08-16T06:20:23.546Z,0.20
2022-08-16T06:22:59.046Z,0.00
2022-08-16T06:25:42.082Z,0.05
2022-08-16T06:28:16.917Z,0.10
2022-08-16T06:30:46.062Z,0.00
2022-08-16T06:33:19.637Z,0.10
2022-08-16T06:35:55.246Z,0.10
2022-08-16T06:38:33.959Z,0.10
2022-08-16T06:41:13.519Z,0.10
2022-08-16T06:43:41.923Z,0.00
2022-08-16T06:46:31.716Z,0.10
2022-08-16T06:49:05.374Z,0.05
2022-08-16T06:51:48.398Z,0.10
2022-08-16T06:56:52.475Z,0.00
2022-08-16T06:59:25.883Z,0.10
2022-08-16T07:01:58.414Z,0.05
2022-08-16T07:04:33.217Z,0.10
2022-08-16T07:07:10.253Z,0.10
2022-08-16T07:09:39.279Z,0.10
2022-08-16T07:12:07.971Z,0.00
2022-08-16T07:14:42.610Z,0.10
2022-08-16T07:17:13.775Z,0.25
2022-08-16T07:20:03.260Z,0.10
2022-08-16T07:22:58.629Z,0.20
2022-08-16T07:25:40.611Z,0.10
2022-08-16T07:28:20.940Z,0.20
2022-08-16T07:30:53.433Z,0.28
2022-08-16T07:33:51.864Z,0.10
2022-08-16T07:36:25.861Z,0.10
2022-08-16T07:38:54.177Z,0.10
2022-08-16T07:41:22.783Z,0.20
2022-08-16T07:43:57.241Z,0.20
2022-08-16T07:46:38.052Z,0.20
2022-08-16T07:49:18.125Z,0.10
2022-08-16T07:51:45.916Z,0.10
2022-08-16T07:54:21.184Z,0.10
2022-08-16T07:57:00.943Z,0.10
2022-08-16T07:59:46.165Z,0.10
2022-08-16T08:02:20.004Z,0.10
2022-08-16T08:04:53.444Z,0.10
2022-08-16T08:07:21.098Z,0.10
2022-08-16T08:09:51.407Z,0.25
2022-08-16T08:12:32.286Z,0.10
2022-08-16T08:15:09.630Z,0.20
2022-08-16T08:17:43.154Z,0.20
2022-08-16T08:20:28.301Z,0.20
2022-08-16T08:23:00.036Z,0.10
2022-08-16T08:25:52.067Z,0.10
2022-08-16T08:28:22.381Z,0.10
2022-08-16T08:31:00.622Z,0.15
2022-08-16T08:33:31.634Z,0.03
2022-08-16T08:36:01.548Z,0.10
2022-08-16T08:38:45.629Z,0.20
2022-08-16T08:41:21.685Z,0.35
2022-08-16T08:43:57.144Z,0.13
2022-08-16T08:46:25.962Z,0.10
2022-08-16T08:49:00.150Z,0.10
2022-08-16T08:51:36.985Z,0.20
2022-08-16T08:54:09.128Z,0.20
2022-08-16T08:56:45.285Z,0.10
2022-08-16T08:59:40.802Z,0.25
2022-08-16T09:02:11.845Z,0.40
2022-08-16T09:04:48.976Z,0.40
2022-08-16T09:07:23.791Z,0.40
2022-08-16T09:10:00.677Z,0.30
2022-08-16T09:12:37.212Z,0.20
2022-08-16T09:15:17.501Z,0.28
2022-08-16T09:17:53.350Z,0.20
2022-08-16T09:20:26.516Z,0.25
2022-08-16T09:22:55.363Z,0.17
2022-08-16T09:25:35.402Z,0.20
2022-08-16T09:28:08.724Z,0.20
2022-08-16T09:30:44.336Z,0.10
2022-08-16T09:33:19.702Z,0.20
2022-08-16T09:35:53.066Z,0.20
2022-08-16T09:38:31.118Z,0.20
2022-08-16T09:41:00.962Z,0.10
2022-08-16T09:43:58.689Z,0.10
2022-08-16T09:46:33.440Z,0.10
2022-08-16T09:49:03.768Z,0.20
2022-08-16T09:51:37.219Z,0.20
2022-08-16T09:54:09.692Z,0.10
2022-08-16T09:56:39.531Z,0.20
2022-08-16T09:59:21.121Z,0.20
2022-08-16T10:01:51.701Z,0.30
2022-08-16T10:04:30.185Z,0.30
2022-08-16T10:09:44.702Z,0.40
2022-08-16T10:12:34.892Z,0.20
2022-08-16T10:15:15.232Z,0.45
2022-08-16T10:18:00.735Z,0.55
2022-08-16T10:20:34.102Z,0.30
2022-08-16T10:23:07.449Z,0.47
2022-08-16T10:27:20.323Z,0.30
2022-08-16T10:28:29.301Z,0.22
2022-08-16T10:30:59.851Z,0.40
2022-08-16T10:33:29.216Z,0.30
2022-08-16T10:36:02.635Z,0.30
2022-08-16T10:38:32.754Z,0.15
2022-08-16T10:41:01.163Z,0.15
2022-08-16T10:43:31.155Z,0.20
2022-08-16T10:46:00.164Z,0.35
2022-08-16T10:48:29.275Z,0.20
2022-08-16T10:51:00.616Z,0.50
2022-08-16T10:53:33.218Z,0.30
2022-08-16T10:56:40.144Z,0.30
2022-08-16T10:59:32.388Z,0.60
2022-08-16T11:02:21.761Z,0.35
2022-08-16T11:10:21.436Z,0.32
2022-08-16T11:16:01.217Z,0.40
2022-08-16T11:19:03.269Z,0.40
2022-08-16T11:21:28.476Z,0.20
2022-08-16T11:23:59.142Z,0.65
2022-08-16T11:26:27.929Z,0.40
2022-08-16T11:29:14.067Z,0.70
2022-08-16T11:31:45.680Z,0.30
2022-08-16T11:34:21.098Z,0.40
2022-08-16T11:36:59.377Z,0.63
2022-08-16T11:39:32.114Z,0.50
2022-08-16T11:42:02.488Z,0.60
2022-08-16T11:44:53.034Z,0.50
2022-08-16T11:47:17.118Z,0.65
2022-08-16T11:49:44.213Z,0.40
2022-08-16T11:52:11.442Z,0.50
2022-08-16T11:54:40.325Z,0.50
2022-08-16T11:57:09.182Z,0.70
2022-08-16T11:59:39.906Z,0.40
2022-08-16T12:02:30.982Z,0.63
2022-08-16T12:04:56.476Z,0.63
2022-08-16T12:07:24.430Z,0.30
2022-08-16T12:09:53.814Z,0.40
2022-08-16T12:12:23.409Z,0.28
2022-08-16T12:14:59.838Z,0.50
2022-08-16T12:17:31.500Z,0.50
2022-08-16T12:20:00.756Z,0.40
2022-08-16T12:22:29.216Z,0.40
2022-08-16T12:24:56.611Z,0.47
2022-08-16T12:27:26.347Z,0.80
2022-08-16T12:29:54.254Z,0.40
2022-08-16T12:32:37.396Z,0.60
2022-08-16T12:35:08.415Z,0.43
2022-08-16T12:37:36.666Z,0.50
2022-08-16T12:40:07.472Z,0.77
2022-08-16T12:42:54.503Z,0.50
2022-08-16T12:45:27.107Z,0.60
2022-08-16T12:51:01.276Z,0.90
2022-08-16T12:53:31.765Z,0.60
2022-08-16T12:55:59.985Z,0.63
2022-08-16T12:58:49.202Z,0.60
2022-08-16T13:01:14.977Z,0.73
2022-08-16T13:03:44.243Z,0.90
2022-08-16T13:06:13.321Z,0.70
2022-08-16T13:08:47.448Z,0.75
2022-08-16T13:11:18.682Z,0.80
2022-08-16T13:13:54.663Z,0.68
2022-08-16T13:16:25.030Z,0.80
2022-08-16T13:18:54.675Z,0.90
2022-08-16T13:21:23.604Z,0.70
2022-08-16T13:23:55.316Z,1.00
2022-08-16T13:26:24.603Z,1.15
2022-08-16T13:28:53.809Z,0.60
2022-08-16T13:31:21.954Z,1.00
2022-08-16T13:33:51.302Z,0.77
2022-08-16T13:36:38.870Z,0.80
2022-08-16T13:39:09.895Z,1.50
2022-08-16T13:41:38.231Z,0.50
2022-08-16T13:44:09.462Z,0.60
2022-08-16T13:46:37.362Z,0.70
2022-08-16T13:49:05.880Z,0.90
2022-08-16T13:51:33.199Z,0.93
2022-08-16T13:54:06.020Z,1.00
2022-08-16T13:56:38.057Z,1.20
2022-08-16T13:59:19.264Z,0.70
2022-08-16T14:01:56.473Z,1.25
2022-08-16T14:04:34.158Z,1.05
2022-08-16T14:09:31.991Z,0.93
2022-08-16T14:12:00.823Z,0.90
2022-08-16T14:14:30.011Z,0.90
2022-08-16T14:17:02.292Z,1.08
2022-08-16T14:19:30.073Z,1.27
2022-08-16T14:22:14.023Z,1.27
2022-08-16T14:24:47.417Z,1.23
2022-08-16T14:27:24.690Z,1.10
2022-08-16T14:29:53.279Z,1.10
2022-08-16T14:32:33.624Z,1.33
2022-08-16T14:35:17.146Z,1.02
2022-08-16T14:37:44.614Z,1.20
2022-08-16T14:40:15.414Z,1.15
2022-08-16T14:42:45.647Z,1.50
2022-08-16T14:45:20.162Z,1.00
2022-08-16T14:47:49.766Z,1.00
2022-08-16T14:50:21.522Z,1.13
2022-08-16T14:53:04.219Z,0.70
2022-08-16T14:55:32.863Z,1.02
2022-08-16T14:58:00.077Z,0.90
2022-08-16T15:00:32.978Z,1.05
2022-08-16T15:03:07.167Z,1.35
2022-08-16T15:05:38.939Z,0.90
2022-08-16T15:08:06.411Z,1.02
2022-08-16T15:10:37.157Z,0.95
2022-08-16T15:13:09.523Z,1.02
2022-08-16T15:15:39.105Z,0.90
2022-08-16T15:18:11.811Z,1.20
2022-08-16T15:20:41.500Z,0.93
2022-08-16T15:23:09.277Z,1.25
2022-08-16T15:25:43.107Z,1.55
2022-08-16T15:28:31.017Z,1.75
2022-08-16T15:31:03.270Z,1.15
2022-08-16T15:33:33.509Z,1.48
2022-08-16T15:36:01.262Z,0.98
2022-08-16T15:38:57.919Z,0.88
2022-08-16T15:41:38.347Z,1.13
2022-08-16T15:44:10.397Z,1.08
2022-08-16T15:46:56.837Z,0.98
2022-08-16T15:49:37.330Z,1.45
2022-08-16T15:52:18.247Z,1.15
2022-08-16T15:54:53.636Z,0.70
2022-08-16T15:57:28.385Z,1.20
2022-08-16T16:00:04.523Z,1.10
2022-08-16T16:02:40.846Z,0.90
2022-08-16T16:05:09.689Z,1.10
2022-08-16T16:07:39.424Z,1.42
2022-08-16T16:10:12.974Z,1.13
2022-08-16T16:12:51.202Z,1.13
2022-08-16T16:15:25.411Z,1.30
2022-08-16T16:17:54.043Z,1.73
2022-08-16T16:20:24.416Z,1.65
2022-08-16T16:23:02.884Z,1.23
2022-08-16T16:25:32.289Z,1.17
2022-08-16T16:28:01.778Z,1.50
2022-08-16T16:30:32.804Z,1.30
2022-08-16T16:33:21.206Z,1.67
2022-08-16T16:35:55.204Z,1.73
2022-08-16T16:38:30.883Z,1.42
2022-08-16T16:41:02.235Z,1.50
2022-08-16T16:43:31.968Z,1.27
2022-08-16T16:46:32.692Z,1.00
2022-08-16T16:48:51.644Z,1.15
2022-08-16T16:51:20.537Z,0.90
2022-08-16T16:53:56.147Z,1.00
2022-08-16T16:56:33.242Z,1.08
2022-08-16T16:59:09.945Z,0.80
2022-08-16T17:01:59.259Z,1.55
2022-08-16T17:04:32.788Z,1.20
2022-08-16T17:07:03.669Z,1.00
2022-08-16T17:09:31.218Z,1.48
2022-08-16T17:11:59.035Z,1.20
2022-08-16T17:14:32.929Z,0.93
2022-08-16T17:17:08.383Z,0.95
2022-08-16T17:22:32.805Z,1.33
2022-08-16T17:25:00.742Z,1.20
2022-08-16T17:27:32.827Z,1.10
2022-08-16T17:30:16.024Z,1.30
2022-08-16T17:32:50.804Z,1.23
2022-08-16T17:35:34.100Z,1.20
2022-08-16T17:38:06.044Z,1.42
2022-08-16T17:39:28.160Z,1.00
2022-08-16T17:40:47.452Z,1.00
2022-08-16T17:43:21.021Z,1.30
2022-08-16T17:45:49.072Z,1.15
2022-08-16T17:48:16.682Z,1.20
2022-08-16T17:50:44.200Z,1.00
2022-08-16T17:53:13.942Z,1.13
2022-08-16T17:55:46.712Z,1.15
2022-08-16T17:58:22.990Z,0.95
2022-08-16T18:00:56.476Z,1.20
2022-08-16T18:04:03.234Z,1.30
2022-08-16T18:06:24.280Z,2.08
2022-08-16T18:09:00.315Z,1.20
2022-08-16T18:11:30.376Z,1.42
2022-08-16T18:14:00.231Z,1.27
2022-08-16T18:16:27.519Z,1.58
2022-08-16T18:18:54.680Z,1.42
2022-08-16T18:21:41.573Z,1.35
2022-08-16T18:24:10.255Z,1.50
2022-08-16T18:26:38.428Z,1.20
2022-08-16T18:29:06.163Z,1.13
2022-08-16T18:31:33.967Z,1.38
2022-08-16T18:34:01.527Z,1.42
2022-08-16T18:36:28.794Z,1.27
2022-08-16T18:38:55.944Z,1.38
2022-08-16T18:41:25.357Z,1.50
2022-08-16T18:44:23.911Z,1.30
2022-08-16T18:46:46.104Z,1.63
2022-08-16T18:49:18.774Z,1.30
2022-08-16T18:51:46.553Z,1.33
2022-08-16T18:54:18.326Z,1.27
2022-08-16T18:56:54.233Z,1.35
2022-08-16T18:59:30.661Z,1.30
2022-08-16T19:02:00.139Z,1.83
2022-08-16T19:04:56.055Z,1.38
2022-08-16T19:07:21.169Z,1.77
2022-08-16T19:09:48.369Z,1.17
2022-08-16T19:12:15.996Z,1.13
2022-08-16T19:14:45.600Z,1.70
2022-08-16T19:17:12.931Z,1.42
2022-08-16T19:19:39.977Z,1.42
2022-08-16T19:22:07.118Z,1.60
2022-08-16T19:24:34.232Z,1.48
2022-08-16T19:27:01.706Z,2.42
2022-08-16T19:29:29.266Z,1.95
2022-08-16T19:31:56.409Z,2.33
2022-08-16T19:34:23.498Z,2.15
2022-08-16T19:36:50.747Z,2.05
2022-08-16T19:39:20.189Z,2.10
2022-08-16T19:41:53.815Z,1.85
2022-08-16T19:44:22.547Z,2.10
2022-08-16T19:46:50.267Z,1.77
2022-08-16T19:49:17.990Z,1.90
2022-08-16T19:51:46.673Z,1.55
2022-08-16T19:54:14.112Z,1.40
2022-08-16T19:56:41.224Z,2.28
2022-08-16T19:59:40.435Z,2.20
2022-08-16T20:01:55.921Z,1.73
2022-08-16T20:04:24.681Z,1.92
2022-08-16T20:06:53.270Z,1.80
2022-08-16T20:09:21.982Z,2.17
2022-08-16T20:11:50.515Z,1.77
2022-08-16T20:14:24.433Z,1.80
2022-08-16T20:16:56.969Z,1.95
2022-08-16T20:19:25.373Z,1.92
2022-08-16T20:21:52.684Z,1.67
2022-08-16T20:24:36.322Z,2.00
2022-08-16T20:27:06.477Z,1.63
2022-08-16T20:29:35.552Z,2.15
2022-08-16T20:32:04.823Z,1.70
2022-08-16T20:34:32.043Z,1.52
2022-08-16T20:36:59.356Z,1.67
2022-08-16T20:39:26.827Z,1.73
2022-08-16T20:44:40.266Z,1.70
2022-08-16T20:47:08.684Z,2.33
2022-08-16T20:49:36.768Z,2.45
2022-08-16T20:52:12.576Z,1.30
2022-08-16T20:54:40.507Z,1.98
2022-08-16T20:57:07.758Z,2.30
2022-08-16T20:59:34.972Z,1.98
2022-08-16T21:02:03.750Z,2.45
2022-08-16T21:04:30.849Z,1.48
2022-08-16T21:06:59.404Z,1.73
2022-08-16T21:09:31.454Z,2.20
2022-08-16T21:12:01.511Z,2.40
2022-08-16T21:14:29.478Z,1.73
2022-08-16T21:16:56.565Z,2.67
2022-08-16T21:19:23.915Z,1.60
2022-08-16T21:21:51.068Z,1.80
2022-08-16T21:24:18.242Z,2.50
2022-08-16T21:26:53.943Z,1.83
2022-08-16T21:29:25.004Z,1.92
2022-08-16T21:31:55.725Z,2.28
2022-08-16T21:34:22.810Z,2.08
2022-08-16T21:36:50.074Z,2.08
2022-08-16T21:39:17.131Z,2.20
2022-08-16T21:41:44.255Z,2.10
2022-08-16T21:44:11.346Z,1.85
2022-08-16T21:46:38.574Z,2.03
2022-08-16T21:49:05.997Z,1.90
2022-08-16T21:51:33.236Z,1.90
2022-08-16T21:54:00.291Z,2.30
2022-08-16T21:56:28.210Z,2.13
2022-08-16T21:58:55.557Z,2.40
2022-08-16T22:01:23.604Z,1.95
2022-08-16T22:04:01.670Z,2.30
2022-08-16T22:06:40.388Z,1.98
2022-08-16T22:09:09.930Z,2.47
2022-08-16T22:11:38.105Z,2.65
2022-08-16T22:14:05.237Z,1.95
2022-08-16T22:16:36.429Z,1.52
2022-08-16T22:19:05.403Z,1.40
2022-08-16T22:21:34.036Z,1.60
2022-08-16T22:24:02.488Z,2.47
2022-08-16T22:26:32.373Z,1.92
2022-08-16T22:29:06.870Z,2.25
2022-08-16T22:31:35.094Z,1.80
2022-08-16T22:34:02.438Z,1.52
2022-08-16T22:36:31.737Z,1.55
2022-08-16T22:39:01.257Z,1.40
2022-08-16T22:41:31.693Z,2.67
2022-08-16T22:43:59.487Z,1.88
2022-08-16T22:46:26.760Z,1.63
2022-08-16T22:48:54.138Z,1.95
2022-08-16T22:51:23.217Z,1.83
2022-08-16T22:53:51.624Z,1.65
2022-08-16T22:56:21.091Z,1.50
2022-08-16T22:58:49.395Z,1.67
2022-08-16T23:01:22.293Z,1.67
2022-08-16T23:03:49.674Z,1.48
2022-08-16T23:06:17.688Z,1.98
2022-08-16T23:08:45.016Z,1.65
2022-08-16T23:11:15.215Z,1.67
2022-08-16T23:13:52.397Z,1.83
2022-08-16T23:16:28.732Z,2.20
2022-08-16T23:19:12.913Z,1.88
2022-08-16T23:21:44.421Z,2.03
2022-08-16T23:24:12.514Z,1.33
2022-08-16T23:26:48.130Z,2.05
2022-08-16T23:29:23.900Z,1.83
2022-08-16T23:32:10.919Z,1.45
2022-08-16T23:34:38.478Z,1.95
2022-08-16T23:37:06.671Z,1.95
2022-08-16T23:39:35.942Z,1.75
2022-08-16T23:42:13.122Z,1.80
2022-08-16T23:44:45.547Z,2.00
2022-08-16T23:50:00.528Z,2.00
2022-08-16T23:52:40.659Z,1.60
2022-08-16T23:55:17.902Z,1.48
2022-08-16T23:57:46.373Z,1.40
